Time,TemperatureF,DewpointF,PressureIn,WindDirection,WindDirectionDegrees,WindSpeedMPH,WindSpeedGustMPH,Humidity,HourlyPrecipIn,Conditions,Clouds,dailyrainin,SoftwareType,DateUTC
2013-01-20 00:00:00,42.1,23.3,29.85,WSW,248,11.6,11.6,47,0.00,,CLR,0.00,VWS V14.01,2013-01-20 05:00:00,
2013-01-20 00:01:00,42.1,22.8,29.85,SW,225,5.4,14.8,46,0.00,,CLR,0.00,VWS V14.01,2013-01-20 05:01:00,
2013-01-20 00:03:00,42.1,23.3,29.85,SW,225,5.8,6.3,47,0.00,,CLR,0.00,VWS V14.01,2013-01-20 05:03:00,
2013-01-20 00:08:00,42.3,23.0,29.85,WSW,248,12.5,12.5,46,0.00,,CLR,0.00,VWS V14.01,2013-01-20 05:08:00,
2013-01-20 00:13:00,42.1,22.8,29.85,SW,225,11.6,11.6,46,0.00,,CLR,0.00,VWS V14.01,2013-01-20 05:13:00,
2013-01-20 00:18:00,42.1,22.8,29.85,SSW,202,8.1,8.5,46,0.00,,CLR,0.00,VWS V14.01,2013-01-20 05:18:00,
2013-01-20 00:23:00,42.1,22.8,29.85,SW,225,4.9,7.2,46,0.00,,CLR,0.00,VWS V14.01,2013-01-20 05:23:00,
2013-01-20 00:28:00,41.7,22.5,29.82,SW,225,7.2,7.2,46,0.00,,CLR,0.00,VWS V14.01,2013-01-20 05:28:00,
2013-01-20 00:34:00,41.5,22.8,29.82,NW,315,6.7,11.6,47,0.00,,CLR,0.00,VWS V14.01,2013-01-20 05:34:00,
2013-01-20 00:39:00,41.5,22.8,29.82,WSW,248,6.7,8.1,47,0.00,,CLR,0.00,VWS V14.01,2013-01-20 05:39:00,
2013-01-20 00:44:00,41.2,22.5,29.82,SW,225,8.5,10.7,47,0.00,,BKN095,0.00,VWS V14.01,2013-01-20 05:44:00,
2013-01-20 00:49:00,41.4,22.7,29.82,SW,225,5.8,7.2,47,0.00,,BKN095,0.00,VWS V14.01,2013-01-20 05:49:00,
2013-01-20 00:54:00,41.2,22.5,29.82,SW,225,6.3,6.3,47,0.00,,BKN095,0.00,VWS V14.01,2013-01-20 05:54:00,
2013-01-20 00:59:00,40.8,22.7,29.79,SW,225,4.9,4.9,48,0.00,,BKN095,0.00,VWS V14.01,2013-01-20 05:59:00,
2013-01-20 01:04:00,40.6,22.5,29.79,SW,225,0.0,0.0,48,0.00,,BKN095,0.00,VWS V14.01,2013-01-20 06:04:00,
2013-01-20 01:09:00,40.5,22.3,29.79,SSW,202,0.0,0.0,48,0.00,,BKN095,0.00,VWS V14.01,2013-01-20 06:09:00,
2013-01-20 01:14:00,40.1,22.0,29.79,SW,225,0.0,0.0,48,0.00,,BKN095,0.00,VWS V14.01,2013-01-20 06:14:00,
2013-01-20 01:19:00,39.4,21.8,29.79,SW,225,0.0,0.0,49,0.00,,BKN095,0.00,VWS V14.01,2013-01-20 06:19:00,
2013-01-20 01:24:00,39.2,21.7,29.79,SW,225,0.0,0.0,49,0.00,,BKN095,0.00,VWS V14.01,2013-01-20 06:24:00,
2013-01-20 01:29:00,39.0,21.5,29.76,NW,315,0.0,0.0,49,0.00,,BKN095,0.00,VWS V14.01,2013-01-20 06:29:00,
2013-01-20 01:34:00,38.8,21.3,29.76,SW,225,0.0,0.0,49,0.00,,BKN095,0.00,VWS V14.01,2013-01-20 06:34:00,
2013-01-20 01:39:00,38.7,21.6,29.76,SSW,202,0.0,0.0,50,0.00,,BKN095,0.00,VWS V14.01,2013-01-20 06:39:00,
2013-01-20 01:44:00,38.3,21.3,29.79,West,270,0.0,0.0,50,0.00,,CLR,0.00,VWS V14.01,2013-01-20 06:44:00,
2013-01-20 01:49:00,37.9,21.0,29.79,West,270,0.0,0.0,50,0.00,,CLR,0.00,VWS V14.01,2013-01-20 06:49:00,
2013-01-20 01:54:00,37.6,20.6,29.79,West,270,0.0,0.0,50,0.00,,CLR,0.00,VWS V14.01,2013-01-20 06:54:00,
2013-01-20 01:59:00,37.4,20.5,29.79,SW,225,0.0,0.0,50,0.00,,CLR,0.00,VWS V14.01,2013-01-20 06:59:00,
2013-01-20 02:04:00,37.2,20.8,29.79,WSW,248,4.0,4.0,51,0.00,,CLR,0.00,VWS V14.01,2013-01-20 07:04:00,
2013-01-20 02:09:00,37.0,21.1,29.79,SW,225,0.0,0.0,52,0.00,,CLR,0.00,VWS V14.01,2013-01-20 07:09:00,
2013-01-20 02:14:00,37.2,21.7,29.76,SW,225,0.0,0.0,53,0.00,,CLR,0.00,VWS V14.01,2013-01-20 07:14:00,
2013-01-20 02:19:00,37.0,21.5,29.76,SW,225,0.0,0.0,53,0.00,,CLR,0.00,VWS V14.01,2013-01-20 07:19:00,
2013-01-20 02:24:00,37.0,21.5,29.76,West,270,0.0,2.7,53,0.00,,CLR,0.00,VWS V14.01,2013-01-20 07:24:00,
2013-01-20 02:29:00,36.7,21.2,29.76,WNW,292,4.0,4.9,53,0.00,,CLR,0.00,VWS V14.01,2013-01-20 07:29:00,
2013-01-20 02:35:00,36.9,21.8,29.76,West,270,0.0,0.0,54,0.00,,CLR,0.00,VWS V14.01,2013-01-20 07:35:00,
2013-01-20 02:40:00,37.4,22.7,29.76,SW,225,3.1,4.5,55,0.00,,CLR,0.00,VWS V14.01,2013-01-20 07:40:00,
2013-01-20 02:45:00,37.6,22.5,29.79,SW,225,2.2,4.9,54,0.00,,CLR,0.00,VWS V14.01,2013-01-20 07:45:00,
2013-01-20 02:50:00,37.4,22.3,29.79,SW,225,0.0,3.1,54,0.00,,CLR,0.00,VWS V14.01,2013-01-20 07:50:00,
2013-01-20 02:55:00,37.4,22.3,29.79,SW,225,0.0,2.7,54,0.00,,CLR,0.00,VWS V14.01,2013-01-20 07:55:00,
2013-01-20 03:00:00,37.0,22.4,29.79,SW,225,4.5,4.5,55,0.00,,CLR,0.00,VWS V14.01,2013-01-20 08:00:00,
2013-01-20 03:05:00,36.9,22.2,29.79,SW,225,0.0,0.0,55,0.00,,CLR,0.00,VWS V14.01,2013-01-20 08:05:00,
2013-01-20 03:10:00,37.0,22.8,29.79,SW,225,7.2,7.2,56,0.00,,CLR,0.00,VWS V14.01,2013-01-20 08:10:00,
2013-01-20 03:15:00,37.6,22.9,29.79,SW,225,5.8,7.2,55,0.00,,CLR,0.00,VWS V14.01,2013-01-20 08:15:00,
2013-01-20 03:20:00,37.6,22.9,29.79,SW,225,4.9,6.3,55,0.00,,CLR,0.00,VWS V14.01,2013-01-20 08:20:00,
2013-01-20 03:25:00,37.9,23.2,29.79,WSW,248,7.6,7.6,55,0.00,,CLR,0.00,VWS V14.01,2013-01-20 08:25:00,
2013-01-20 03:30:00,37.6,22.9,29.79,SSW,202,4.9,4.9,55,0.00,,CLR,0.00,VWS V14.01,2013-01-20 08:30:00,
2013-01-20 03:35:00,37.4,22.7,29.79,WSW,248,4.9,5.4,55,0.00,,CLR,0.00,VWS V14.01,2013-01-20 08:35:00,
2013-01-20 03:40:00,37.2,22.6,29.79,SW,225,4.9,4.9,55,0.00,,CLR,0.00,VWS V14.01,2013-01-20 08:40:00,
2013-01-20 03:45:00,37.0,22.8,29.76,WNW,292,5.8,5.8,56,0.00,,CLR,0.00,VWS V14.01,2013-01-20 08:45:00,
2013-01-20 03:50:00,37.2,23.0,29.76,SSW,202,5.4,5.4,56,0.00,,CLR,0.00,VWS V14.01,2013-01-20 08:50:00,
2013-01-20 03:55:00,37.4,22.7,29.76,SW,225,4.9,4.9,55,0.00,,CLR,0.00,VWS V14.01,2013-01-20 08:55:00,
2013-01-20 04:00:00,37.4,22.7,29.74,SW,225,5.4,5.4,55,0.00,,CLR,0.00,VWS V14.01,2013-01-20 09:00:00,
2013-01-20 04:05:00,37.4,22.7,29.74,SSW,202,7.2,7.6,55,0.00,,CLR,0.00,VWS V14.01,2013-01-20 09:05:00,
2013-01-20 04:10:00,37.4,22.7,29.74,WSW,248,5.8,5.8,55,0.00,,CLR,0.00,VWS V14.01,2013-01-20 09:10:00,
2013-01-20 04:15:00,37.6,22.9,29.74,WNW,292,4.9,6.3,55,0.00,,CLR,0.00,VWS V14.01,2013-01-20 09:15:00,
2013-01-20 04:20:00,37.6,22.9,29.74,WSW,248,9.4,9.4,55,0.00,,CLR,0.00,VWS V14.01,2013-01-20 09:20:00,
2013-01-20 04:25:00,37.8,22.6,29.74,SW,225,7.2,9.8,54,0.00,,CLR,0.00,VWS V14.01,2013-01-20 09:25:00,
2013-01-20 04:31:00,37.8,22.6,29.74,SW,225,6.3,6.3,54,0.00,,CLR,0.00,VWS V14.01,2013-01-20 09:31:00,
2013-01-20 04:36:00,37.9,22.8,29.74,SSW,202,7.2,12.1,54,0.00,,CLR,0.00,VWS V14.01,2013-01-20 09:36:00,
2013-01-20 04:41:00,37.8,22.6,29.74,SW,225,6.7,6.7,54,0.00,,CLR,0.00,VWS V14.01,2013-01-20 09:41:00,
2013-01-20 04:46:00,37.8,22.2,29.74,West,270,6.7,6.7,53,0.00,,CLR,0.00,VWS V14.01,2013-01-20 09:46:00,
2013-01-20 04:51:00,37.9,22.4,29.74,WSW,248,7.2,9.8,53,0.00,,CLR,0.00,VWS V14.01,2013-01-20 09:51:00,
2013-01-20 04:56:00,38.1,22.5,29.74,SW,225,6.3,6.3,53,0.00,,CLR,0.00,VWS V14.01,2013-01-20 09:56:00,
2013-01-20 05:01:00,37.9,22.4,29.74,SW,225,5.4,7.2,53,0.00,,CLR,0.00,VWS V14.01,2013-01-20 10:01:00,
2013-01-20 05:06:00,37.6,22.0,29.74,WSW,248,6.3,6.7,53,0.00,,CLR,0.00,VWS V14.01,2013-01-20 10:06:00,
2013-01-20 05:11:00,37.4,21.9,29.74,SW,225,5.8,5.8,53,0.00,,CLR,0.00,VWS V14.01,2013-01-20 10:11:00,
2013-01-20 05:16:00,37.2,22.1,29.71,WSW,248,4.9,4.9,54,0.00,,CLR,0.00,VWS V14.01,2013-01-20 10:16:00,
2013-01-20 05:21:00,37.0,22.0,29.71,SW,225,3.1,4.0,54,0.00,,CLR,0.00,VWS V14.01,2013-01-20 10:21:00,
2013-01-20 05:26:00,36.9,21.8,29.71,SW,225,0.0,4.0,54,0.00,,CLR,0.00,VWS V14.01,2013-01-20 10:26:00,
2013-01-20 05:31:00,36.5,21.5,29.71,SW,225,0.0,0.0,54,0.00,,CLR,0.00,VWS V14.01,2013-01-20 10:31:00,
2013-01-20 05:36:00,36.3,21.7,29.71,WSW,248,6.3,7.2,55,0.00,,CLR,0.00,VWS V14.01,2013-01-20 10:36:00,
2013-01-20 05:41:00,36.3,21.7,29.71,SW,225,3.1,4.0,55,0.00,,CLR,0.00,VWS V14.01,2013-01-20 10:41:00,
2013-01-20 05:46:00,36.1,22.0,29.71,SSW,202,4.5,4.5,56,0.00,,CLR,0.00,VWS V14.01,2013-01-20 10:46:00,
2013-01-20 05:51:00,36.1,22.0,29.71,WSW,248,1.8,4.5,56,0.00,,CLR,0.00,VWS V14.01,2013-01-20 10:51:00,
2013-01-20 05:56:00,35.8,21.6,29.71,West,270,4.5,4.5,56,0.00,,CLR,0.00,VWS V14.01,2013-01-20 10:56:00,
2013-01-20 06:01:00,35.8,22.0,29.71,SW,225,2.7,4.0,57,0.00,,CLR,0.00,VWS V14.01,2013-01-20 11:01:00,
2013-01-20 06:06:00,35.6,21.9,29.71,WSW,248,4.9,4.9,57,0.00,,CLR,0.00,VWS V14.01,2013-01-20 11:06:00,
2013-01-20 06:11:00,35.4,22.1,29.71,SW,225,4.5,5.4,58,0.00,,CLR,0.00,VWS V14.01,2013-01-20 11:11:00,
2013-01-20 06:16:00,35.6,22.7,29.71,WSW,248,6.3,6.3,59,0.00,,CLR,0.00,VWS V14.01,2013-01-20 11:16:00,
2013-01-20 06:21:00,35.6,22.7,29.71,SW,225,5.4,6.3,59,0.00,,CLR,0.00,VWS V14.01,2013-01-20 11:21:00,
2013-01-20 06:26:00,35.4,22.5,29.68,WSW,248,3.1,5.4,59,0.00,,CLR,0.00,VWS V14.01,2013-01-20 11:26:00,
2013-01-20 06:32:00,35.4,22.5,29.68,SW,225,5.8,5.8,59,0.00,,CLR,0.00,VWS V14.01,2013-01-20 11:32:00,
2013-01-20 06:37:00,35.4,22.5,29.68,West,270,3.1,3.1,59,0.00,,CLR,0.00,VWS V14.01,2013-01-20 11:37:00,
2013-01-20 06:42:00,35.4,22.9,29.68,West,270,2.7,3.1,60,0.00,,CLR,0.00,VWS V14.01,2013-01-20 11:42:00,
2013-01-20 06:47:00,35.4,22.9,29.68,SW,225,4.5,4.5,60,0.00,,CLR,0.00,VWS V14.01,2013-01-20 11:47:00,
2013-01-20 06:52:00,35.2,22.4,29.68,WSW,248,4.0,6.7,59,0.00,,CLR,0.00,VWS V14.01,2013-01-20 11:52:00,
2013-01-20 06:57:00,35.4,22.9,29.68,SW,225,6.3,6.3,60,0.00,,CLR,0.00,VWS V14.01,2013-01-20 11:57:00,
2013-01-20 07:02:00,35.4,22.5,29.68,SW,225,5.8,5.8,59,0.00,,CLR,0.00,VWS V14.01,2013-01-20 12:02:00,
2013-01-20 07:07:00,35.4,22.5,29.68,SW,225,4.5,5.4,59,0.00,,CLR,0.00,VWS V14.01,2013-01-20 12:07:00,
2013-01-20 07:12:00,35.4,22.5,29.68,SW,225,0.0,2.2,59,0.00,,CLR,0.00,VWS V14.01,2013-01-20 12:12:00,
2013-01-20 07:17:00,35.4,22.1,29.68,SW,225,6.3,6.7,58,0.00,,CLR,0.00,VWS V14.01,2013-01-20 12:17:00,
2013-01-20 07:22:00,35.4,22.1,29.68,SW,225,5.4,6.7,58,0.00,,CLR,0.00,VWS V14.01,2013-01-20 12:22:00,
2013-01-20 07:27:00,35.6,21.9,29.68,WSW,248,5.4,5.4,57,0.00,,CLR,0.00,VWS V14.01,2013-01-20 12:27:00,
2013-01-20 07:32:00,35.6,21.9,29.68,SW,225,2.7,3.1,57,0.00,,CLR,0.00,VWS V14.01,2013-01-20 12:32:00,
2013-01-20 07:37:00,35.1,21.4,29.68,WNW,292,0.0,0.0,57,0.00,,CLR,0.00,VWS V14.01,2013-01-20 12:37:00,
2013-01-20 07:42:00,34.9,21.2,29.65,West,270,0.0,0.0,57,0.00,,CLR,0.00,VWS V14.01,2013-01-20 12:42:00,
2013-01-20 07:47:00,34.7,21.5,29.65,West,270,0.0,0.0,58,0.00,,CLR,0.00,VWS V14.01,2013-01-20 12:47:00,
2013-01-20 07:52:00,34.5,21.3,29.65,West,270,0.0,0.0,58,0.00,,CLR,0.00,VWS V14.01,2013-01-20 12:52:00,
2013-01-20 07:57:00,34.3,21.1,29.68,West,270,0.0,0.0,58,0.00,,CLR,0.00,VWS V14.01,2013-01-20 12:57:00,
2013-01-20 08:02:00,34.3,21.1,29.68,West,270,0.0,0.0,58,0.00,,CLR,0.00,VWS V14.01,2013-01-20 13:02:00,
2013-01-20 08:07:00,34.2,20.9,29.68,West,270,0.0,0.0,58,0.00,,CLR,0.00,VWS V14.01,2013-01-20 13:07:00,
2013-01-20 08:12:00,34.5,21.7,29.65,WSW,248,3.1,4.9,59,0.00,,CLR,0.00,VWS V14.01,2013-01-20 13:12:00,
2013-01-20 08:18:00,34.9,22.4,29.65,SW,225,4.5,5.4,60,0.00,,CLR,0.00,VWS V14.01,2013-01-20 13:18:00,
2013-01-20 08:23:00,35.8,22.9,29.65,WSW,248,4.9,6.7,59,0.00,,CLR,0.00,VWS V14.01,2013-01-20 13:23:00,
2013-01-20 08:28:00,36.3,22.6,29.68,SW,225,7.6,8.5,57,0.00,,CLR,0.00,VWS V14.01,2013-01-20 13:28:00,
2013-01-20 08:33:00,36.9,22.2,29.68,SW,225,7.2,8.5,55,0.00,,CLR,0.00,VWS V14.01,2013-01-20 13:33:00,
2013-01-20 08:38:00,37.2,22.1,29.68,SW,225,8.1,8.1,54,0.00,,CLR,0.00,VWS V14.01,2013-01-20 13:38:00,
2013-01-20 08:43:00,37.8,22.2,29.68,WSW,248,8.1,8.1,53,0.00,,CLR,0.00,VWS V14.01,2013-01-20 13:43:00,
2013-01-20 08:48:00,38.3,22.2,29.68,SW,225,6.3,11.6,52,0.00,,CLR,0.00,VWS V14.01,2013-01-20 13:48:00,
2013-01-20 08:53:00,39.0,22.0,29.68,SW,225,12.5,12.5,50,0.00,,CLR,0.00,VWS V14.01,2013-01-20 13:53:00,
2013-01-20 08:58:00,40.1,22.5,29.71,SW,225,8.5,13.0,49,0.00,,CLR,0.00,VWS V14.01,2013-01-20 13:58:00,
2013-01-20 09:03:00,41.0,22.8,29.71,WSW,248,7.6,11.2,48,0.00,,CLR,0.00,VWS V14.01,2013-01-20 14:03:00,
2013-01-20 09:08:00,41.0,22.3,29.71,SSW,202,14.3,14.3,47,0.00,,CLR,0.00,VWS V14.01,2013-01-20 14:08:00,
2013-01-20 09:13:00,41.5,22.8,29.68,WSW,248,9.4,10.7,47,0.00,,CLR,0.00,VWS V14.01,2013-01-20 14:13:00,
2013-01-20 09:18:00,42.3,23.0,29.68,SW,225,16.1,17.5,46,0.00,,CLR,0.00,VWS V14.01,2013-01-20 14:18:00,
2013-01-20 09:23:00,43.5,23.6,29.68,SSW,202,8.1,8.5,45,0.00,,CLR,0.00,VWS V14.01,2013-01-20 14:23:00,
2013-01-20 09:28:00,44.2,23.7,29.68,SW,225,7.2,9.4,44,0.00,,CLR,0.00,VWS V14.01,2013-01-20 14:28:00,
2013-01-20 09:33:00,44.8,23.1,29.68,SW,225,12.1,12.1,42,0.00,,CLR,0.00,VWS V14.01,2013-01-20 14:33:00,
2013-01-20 09:38:00,44.6,23.5,29.68,SW,225,8.1,8.1,43,0.00,,CLR,0.00,VWS V14.01,2013-01-20 14:38:00,
2013-01-20 09:43:00,45.1,23.4,29.68,SSW,202,11.2,11.2,42,0.00,,CLR,0.00,VWS V14.01,2013-01-20 14:43:00,
2013-01-20 09:48:00,45.5,23.2,29.68,SW,225,13.9,13.9,41,0.00,,CLR,0.00,VWS V14.01,2013-01-20 14:48:00,
2013-01-20 09:53:00,46.0,23.7,29.68,SW,225,10.7,13.4,41,0.00,,CLR,0.00,VWS V14.01,2013-01-20 14:53:00,
2013-01-20 09:59:00,46.2,23.8,29.68,SW,225,8.5,10.7,41,0.00,,CLR,0.00,VWS V14.01,2013-01-20 14:59:00,
2013-01-20 10:04:00,46.2,23.8,29.68,WSW,248,13.0,13.0,41,0.00,,CLR,0.00,VWS V14.01,2013-01-20 15:04:00,
2013-01-20 10:09:00,45.9,23.5,29.68,SW,225,16.1,16.1,41,0.00,,CLR,0.00,VWS V14.01,2013-01-20 15:09:00,
2013-01-20 10:14:00,45.7,23.4,29.68,SW,225,7.6,7.6,41,0.00,,CLR,0.00,VWS V14.01,2013-01-20 15:14:00,
2013-01-20 10:19:00,46.0,23.7,29.68,SW,225,6.7,8.5,41,0.00,,CLR,0.00,VWS V14.01,2013-01-20 15:19:00,
2013-01-20 10:24:00,46.2,23.8,29.68,SW,225,17.0,17.0,41,0.00,,CLR,0.00,VWS V14.01,2013-01-20 15:24:00,
2013-01-20 10:29:00,46.4,23.4,29.65,SW,225,13.4,15.2,40,0.00,,CLR,0.00,VWS V14.01,2013-01-20 15:29:00,
2013-01-20 10:34:00,46.8,23.7,29.65,West,270,9.8,9.8,40,0.00,,CLR,0.00,VWS V14.01,2013-01-20 15:34:00,
2013-01-20 10:39:00,46.6,23.6,29.65,SSW,202,17.5,17.5,40,0.00,,CLR,0.00,VWS V14.01,2013-01-20 15:39:00,
2013-01-20 10:44:00,46.8,23.7,29.65,SW,225,12.5,13.0,40,0.00,,CLR,0.00,VWS V14.01,2013-01-20 15:44:00,
2013-01-20 10:49:00,46.8,23.7,29.65,SW,225,7.2,19.7,40,0.00,,CLR,0.00,VWS V14.01,2013-01-20 15:49:00,
2013-01-20 10:54:00,46.8,23.7,29.65,SW,225,11.2,24.6,40,0.00,,CLR,0.00,VWS V14.01,2013-01-20 15:54:00,
2013-01-20 10:59:00,46.9,23.9,29.62,SW,225,12.1,17.0,40,0.00,,CLR,0.00,VWS V14.01,2013-01-20 15:59:00,
2013-01-20 11:04:00,46.8,23.7,29.62,SSW,202,11.2,16.1,40,0.00,,CLR,0.00,VWS V14.01,2013-01-20 16:04:00,
2013-01-20 11:09:00,46.4,23.4,29.62,SW,225,10.7,15.2,40,0.00,,CLR,0.00,VWS V14.01,2013-01-20 16:09:00,
2013-01-20 11:14:00,46.2,23.8,29.62,SW,225,12.1,15.2,41,0.00,,CLR,0.00,VWS V14.01,2013-01-20 16:14:00,
2013-01-20 11:19:00,46.2,23.8,29.62,SSW,202,11.6,21.0,41,0.00,,CLR,0.00,VWS V14.01,2013-01-20 16:19:00,
2013-01-20 11:24:00,46.2,23.8,29.62,WSW,248,8.1,11.2,41,0.00,,CLR,0.00,VWS V14.01,2013-01-20 16:24:00,
2013-01-20 11:30:00,46.4,24.0,29.62,SW,225,9.8,10.7,41,0.00,,CLR,0.00,VWS V14.01,2013-01-20 16:30:00,
2013-01-20 11:35:00,46.4,24.0,29.62,SW,225,11.6,13.0,41,0.00,,CLR,0.00,VWS V14.01,2013-01-20 16:35:00,
2013-01-20 11:40:00,46.2,23.8,29.62,SW,225,12.5,12.5,41,0.00,,CLR,0.00,VWS V14.01,2013-01-20 16:40:00,
2013-01-20 11:45:00,46.6,24.2,29.62,WSW,248,17.5,17.5,41,0.00,,FEW065,0.00,VWS V14.01,2013-01-20 16:45:00,
2013-01-20 11:50:00,46.8,24.3,29.62,SSW,202,7.6,11.2,41,0.00,,FEW065,0.00,VWS V14.01,2013-01-20 16:50:00,
2013-01-20 11:55:00,46.9,24.5,29.62,SW,225,7.6,7.6,41,0.00,,FEW065,0.00,VWS V14.01,2013-01-20 16:55:00,
2013-01-20 12:00:00,46.8,24.3,29.62,WSW,248,6.7,9.8,41,0.00,,FEW065,0.00,VWS V14.01,2013-01-20 17:00:00,
2013-01-20 12:05:00,46.6,24.2,29.62,SW,225,10.7,10.7,41,0.00,,FEW065,0.00,VWS V14.01,2013-01-20 17:05:00,
2013-01-20 12:10:00,46.2,23.8,29.62,WSW,248,7.6,8.5,41,0.00,,FEW065,0.00,VWS V14.01,2013-01-20 17:10:00,
2013-01-20 12:15:00,45.9,23.5,29.62,WSW,248,8.1,8.1,41,0.00,,FEW065,0.00,VWS V14.01,2013-01-20 17:15:00,
2013-01-20 12:20:00,45.9,23.5,29.62,South,180,9.8,12.1,41,0.00,,FEW065,0.00,VWS V14.01,2013-01-20 17:20:00,
2013-01-20 12:25:00,47.3,24.8,29.62,WNW,292,5.8,8.5,41,0.00,,FEW065,0.00,VWS V14.01,2013-01-20 17:25:00,
2013-01-20 12:30:00,49.5,25.5,29.62,SW,225,10.7,10.7,39,0.00,,FEW065,0.00,VWS V14.01,2013-01-20 17:30:00,
2013-01-20 12:35:00,50.9,26.2,29.62,WSW,248,8.1,8.1,38,0.00,,FEW065,0.00,VWS V14.01,2013-01-20 17:35:00,
2013-01-20 12:40:00,50.9,25.6,29.62,West,270,13.0,13.0,37,0.00,,CLR,0.00,VWS V14.01,2013-01-20 17:40:00,
2013-01-20 12:45:00,52.2,26.0,29.62,SW,225,6.7,11.2,36,0.00,,CLR,0.00,VWS V14.01,2013-01-20 17:45:00,
2013-01-20 12:50:00,53.1,26.8,29.62,West,270,8.5,12.5,36,0.00,,CLR,0.00,VWS V14.01,2013-01-20 17:50:00,
2013-01-20 12:59:00,52.9,23.1,29.59,West,270,11.2,15.7,31,0.00,,CLR,0.00,VWS V14.01,2013-01-20 17:59:00,
2013-01-20 13:09:00,53.6,22.1,29.59,SSW,202,10.7,10.7,29,0.00,,CLR,0.00,VWS V14.01,2013-01-20 18:09:00,
2013-01-20 13:15:00,53.6,21.3,29.62,NW,315,7.2,7.2,28,0.00,,CLR,0.00,VWS V14.01,2013-01-20 18:15:00,
2013-01-20 13:23:00,52.2,20.9,29.62,SW,225,2.7,9.8,29,0.00,,CLR,0.00,VWS V14.01,2013-01-20 18:23:00,
2013-01-20 13:33:00,53.1,22.5,29.65,South,180,6.7,6.7,30,0.00,,CLR,0.00,VWS V14.01,2013-01-20 18:33:00,
2013-01-20 13:40:00,53.4,22.8,29.65,West,270,3.1,3.1,30,0.00,,CLR,0.00,VWS V14.01,2013-01-20 18:40:00,
2013-01-20 13:50:00,54.1,21.8,29.65,WSW,248,5.4,12.1,28,0.00,,CLR,0.00,VWS V14.01,2013-01-20 18:50:00,
2013-01-20 13:55:00,54.0,21.6,29.65,North,0,8.5,14.8,28,0.00,,CLR,0.00,VWS V14.01,2013-01-20 18:55:00,
2013-01-20 14:00:00,53.2,21.0,29.68,NW,315,11.6,17.5,28,0.00,,CLR,0.00,VWS V14.01,2013-01-20 19:00:00,
2013-01-20 14:05:00,53.1,20.8,29.68,SW,225,4.9,5.4,28,0.00,,CLR,0.00,VWS V14.01,2013-01-20 19:05:00,
2013-01-20 14:10:00,53.1,20.8,29.68,WSW,248,13.0,13.0,28,0.00,,CLR,0.00,VWS V14.01,2013-01-20 19:10:00,
2013-01-20 14:15:00,53.1,20.8,29.68,SSW,202,9.8,9.8,28,0.00,,CLR,0.00,VWS V14.01,2013-01-20 19:15:00,
2013-01-20 14:20:00,53.1,21.7,29.68,West,270,7.2,7.2,29,0.00,,CLR,0.00,VWS V14.01,2013-01-20 19:20:00,
2013-01-20 14:25:00,52.5,21.2,29.68,SSW,202,6.7,8.1,29,0.00,,CLR,0.00,VWS V14.01,2013-01-20 19:25:00,
2013-01-20 14:30:00,51.6,20.4,29.68,NW,315,5.8,12.1,29,0.00,,CLR,0.00,VWS V14.01,2013-01-20 19:30:00,
2013-01-20 14:35:00,51.3,20.1,29.68,NNW,338,9.8,9.8,29,0.00,,CLR,0.00,VWS V14.01,2013-01-20 19:35:00,
2013-01-20 14:40:00,51.1,20.0,29.68,NW,315,13.0,13.0,29,0.00,,CLR,0.00,VWS V14.01,2013-01-20 19:40:00,
2013-01-20 14:45:00,50.5,19.5,29.68,SSW,202,8.5,9.8,29,0.00,,CLR,0.00,VWS V14.01,2013-01-20 19:45:00,
2013-01-20 14:50:00,50.4,19.3,29.68,West,270,8.1,9.8,29,0.00,,CLR,0.00,VWS V14.01,2013-01-20 19:50:00,
2013-01-20 14:55:00,50.4,19.3,29.68,NW,315,7.6,7.6,29,0.00,,CLR,0.00,VWS V14.01,2013-01-20 19:55:00,
2013-01-20 15:00:00,49.8,18.9,29.71,SW,225,6.3,11.2,29,0.00,,CLR,0.00,VWS V14.01,2013-01-20 20:00:00,
2013-01-20 15:05:00,49.5,18.5,29.71,NW,315,8.1,8.1,29,0.00,,CLR,0.00,VWS V14.01,2013-01-20 20:05:00,
2013-01-20 15:10:00,48.7,17.9,29.71,SSW,202,3.1,16.1,29,0.00,,CLR,0.00,VWS V14.01,2013-01-20 20:10:00,
2013-01-20 15:15:00,48.2,17.5,29.74,West,270,14.8,14.8,29,0.00,,CLR,0.00,VWS V14.01,2013-01-20 20:15:00,
2013-01-20 15:21:00,47.8,17.1,29.74,NW,315,9.4,10.7,29,0.00,,CLR,0.00,VWS V14.01,2013-01-20 20:21:00,
2013-01-20 15:26:00,47.7,17.0,29.74,NW,315,4.9,7.2,29,0.00,,CLR,0.00,VWS V14.01,2013-01-20 20:26:00,
2013-01-20 15:31:00,47.1,16.5,29.74,WNW,292,0.0,2.7,29,0.00,,CLR,0.00,VWS V14.01,2013-01-20 20:31:00,
2013-01-20 15:36:00,46.8,16.2,29.74,SW,225,7.6,9.8,29,0.00,,CLR,0.00,VWS V14.01,2013-01-20 20:36:00,
2013-01-20 15:41:00,46.2,16.5,29.74,SW,225,7.2,7.2,30,0.00,,CLR,0.00,VWS V14.01,2013-01-20 20:41:00,
2013-01-20 15:46:00,45.5,15.9,29.74,West,270,17.0,17.0,30,0.00,,CLR,0.00,VWS V14.01,2013-01-20 20:46:00,
2013-01-20 15:51:00,44.6,15.1,29.74,SW,225,6.7,6.7,30,0.00,,CLR,0.00,VWS V14.01,2013-01-20 20:51:00,
2013-01-20 15:56:00,44.1,15.4,29.74,WSW,248,8.5,8.5,31,0.00,,CLR,0.00,VWS V14.01,2013-01-20 20:56:00,
2013-01-20 16:01:00,43.5,14.9,29.76,West,270,6.7,17.0,31,0.00,,CLR,0.00,VWS V14.01,2013-01-20 21:01:00,
2013-01-20 16:06:00,43.2,14.6,29.76,NW,315,7.6,7.6,31,0.00,,CLR,0.00,VWS V14.01,2013-01-20 21:06:00,
2013-01-20 16:12:00,42.8,14.3,29.79,West,270,9.8,10.7,31,0.00,,CLR,0.00,VWS V14.01,2013-01-20 21:12:00,
2013-01-20 16:17:00,42.3,13.8,29.79,WNW,292,5.8,11.2,31,0.00,,CLR,0.00,VWS V14.01,2013-01-20 21:17:00,
2013-01-20 16:22:00,41.5,13.2,29.79,NW,315,7.2,7.2,31,0.00,,CLR,0.00,VWS V14.01,2013-01-20 21:22:00,
2013-01-20 16:27:00,40.6,13.1,29.76,NW,315,4.0,7.6,32,0.00,,CLR,0.00,VWS V14.01,2013-01-20 21:27:00,
2013-01-20 16:32:00,39.9,12.5,29.76,WSW,248,5.4,5.4,32,0.00,,CLR,0.00,VWS V14.01,2013-01-20 21:32:00,
2013-01-20 16:37:00,39.4,12.0,29.76,SW,225,9.0,9.0,32,0.00,,CLR,0.00,VWS V14.01,2013-01-20 21:37:00,
2013-01-20 16:42:00,39.0,11.7,29.79,SW,225,7.6,7.6,32,0.00,,CLR,0.00,VWS V14.01,2013-01-20 21:42:00,
2013-01-20 16:47:00,38.3,11.0,29.79,West,270,13.0,13.0,32,0.00,,CLR,0.00,VWS V14.01,2013-01-20 21:47:00,
2013-01-20 16:52:00,37.9,10.7,29.79,NW,315,12.1,12.1,32,0.00,,CLR,0.00,VWS V14.01,2013-01-20 21:52:00,
2013-01-20 16:57:00,37.6,10.4,29.82,WSW,248,8.5,8.5,32,0.00,,CLR,0.00,VWS V14.01,2013-01-20 21:57:00,
2013-01-20 17:02:00,37.0,9.9,29.82,SW,225,6.7,10.7,32,0.00,,CLR,0.00,VWS V14.01,2013-01-20 22:02:00,
2013-01-20 17:07:00,36.9,9.8,29.82,ENE,68,7.6,7.6,32,0.00,,CLR,0.00,VWS V14.01,2013-01-20 22:07:00,
2013-01-20 17:12:00,36.5,9.5,29.85,WSW,248,4.9,9.8,32,0.00,,CLR,0.00,VWS V14.01,2013-01-20 22:12:00,
2013-01-20 17:18:00,36.1,9.1,29.85,SSW,202,5.4,5.4,32,0.00,,CLR,0.00,VWS V14.01,2013-01-20 22:18:00,
2013-01-20 17:22:00,35.8,8.8,29.85,SW,225,4.0,7.6,32,0.00,,CLR,0.00,VWS V14.01,2013-01-20 22:22:00,
2013-01-20 17:27:00,35.6,8.7,29.82,SW,225,7.2,7.2,32,0.00,,CLR,0.00,VWS V14.01,2013-01-20 22:27:00,
2013-01-20 17:33:00,35.4,8.5,29.82,SW,225,7.6,17.0,32,0.00,,CLR,0.00,VWS V14.01,2013-01-20 22:33:00,
2013-01-20 17:38:00,35.2,8.4,29.82,SW,225,8.1,12.5,32,0.00,,CLR,0.00,VWS V14.01,2013-01-20 22:38:00,
2013-01-20 17:43:00,35.1,8.9,29.85,West,270,1.8,6.3,33,0.00,,CLR,0.00,VWS V14.01,2013-01-20 22:43:00,
2013-01-20 17:48:00,34.5,8.4,29.85,SW,225,6.7,11.2,33,0.00,,CLR,0.00,VWS V14.01,2013-01-20 22:48:00,
2013-01-20 17:53:00,34.3,8.2,29.85,West,270,4.5,7.2,33,0.00,,CLR,0.00,VWS V14.01,2013-01-20 22:53:00,
2013-01-20 17:58:00,34.2,8.1,29.85,West,270,5.4,9.8,33,0.00,,CLR,0.00,VWS V14.01,2013-01-20 22:58:00,
2013-01-20 18:03:00,34.0,7.9,29.85,SW,225,4.0,5.8,33,0.00,,CLR,0.00,VWS V14.01,2013-01-20 23:03:00,
2013-01-20 18:08:00,33.8,8.4,29.85,SSW,202,3.1,7.6,34,0.00,,CLR,0.00,VWS V14.01,2013-01-20 23:08:00,
2013-01-20 18:13:00,33.3,7.9,29.88,West,270,4.5,4.5,34,0.00,,CLR,0.00,VWS V14.01,2013-01-20 23:13:00,
2013-01-20 18:18:00,33.1,8.4,29.88,West,270,6.3,6.3,35,0.00,,CLR,0.00,VWS V14.01,2013-01-20 23:18:00,
2013-01-20 18:23:00,33.1,9.1,29.88,West,270,3.1,3.1,36,0.00,,CLR,0.00,VWS V14.01,2013-01-20 23:23:00,
2013-01-20 18:28:00,33.1,9.7,29.91,WNW,292,5.8,6.7,37,0.00,,CLR,0.00,VWS V14.01,2013-01-20 23:28:00,
2013-01-20 18:33:00,32.7,9.3,29.91,NW,315,4.0,4.0,37,0.00,,CLR,0.00,VWS V14.01,2013-01-20 23:33:00,
2013-01-20 18:38:00,32.5,9.8,29.91,West,270,3.1,3.1,38,0.00,,CLR,0.00,VWS V14.01,2013-01-20 23:38:00,
2013-01-20 18:43:00,32.5,9.2,29.94,NW,315,9.4,9.4,37,0.00,,CLR,0.00,VWS V14.01,2013-01-20 23:43:00,
2013-01-20 18:48:00,32.5,9.2,29.94,WSW,248,9.8,14.8,37,0.00,,CLR,0.00,VWS V14.01,2013-01-20 23:48:00,
2013-01-20 18:53:00,32.4,9.0,29.94,NW,315,6.7,7.2,37,0.00,,CLR,0.00,VWS V14.01,2013-01-20 23:53:00,
2013-01-20 18:58:00,32.2,8.9,29.91,SW,225,2.7,5.4,37,0.00,,CLR,0.00,VWS V14.01,2013-01-20 23:58:00,
2013-01-20 19:03:00,31.8,9.1,29.91,WSW,248,5.4,7.2,38,0.00,,CLR,0.00,VWS V14.01,2013-01-21 00:03:00,
2013-01-20 19:08:00,31.6,9.0,29.91,WSW,248,4.9,7.2,38,0.00,,CLR,0.00,VWS V14.01,2013-01-21 00:08:00,
2013-01-20 19:13:00,31.5,8.8,29.91,West,270,9.8,9.8,38,0.00,,CLR,0.00,VWS V14.01,2013-01-21 00:13:00,
2013-01-20 19:19:00,31.3,8.6,29.91,SW,225,5.4,6.7,38,0.00,,CLR,0.00,VWS V14.01,2013-01-21 00:19:00,
2013-01-20 19:24:00,31.1,9.1,29.91,SW,225,3.1,4.5,39,0.00,,CLR,0.00,VWS V14.01,2013-01-21 00:24:00,
2013-01-20 19:29:00,30.6,8.6,29.94,SSW,202,2.2,2.2,39,0.00,,CLR,0.00,VWS V14.01,2013-01-21 00:29:00,
2013-01-20 19:34:00,30.6,8.6,29.94,WNW,292,5.4,5.4,39,0.00,,CLR,0.00,VWS V14.01,2013-01-21 00:34:00,
2013-01-20 19:39:00,30.6,9.1,29.94,NE,45,5.4,5.4,40,0.00,,CLR,0.00,VWS V14.01,2013-01-21 00:39:00,
2013-01-20 19:44:00,30.4,9.0,29.94,South,180,5.4,8.5,40,0.00,,CLR,0.00,VWS V14.01,2013-01-21 00:44:00,
2013-01-20 19:49:00,30.2,9.4,29.94,SW,225,3.1,3.1,41,0.00,,CLR,0.00,VWS V14.01,2013-01-21 00:49:00,
2013-01-20 19:54:00,30.2,9.4,29.94,West,270,7.6,8.1,41,0.00,,CLR,0.00,VWS V14.01,2013-01-21 00:54:00,
2013-01-20 19:59:00,30.2,9.4,29.94,NW,315,5.4,6.3,41,0.00,,CLR,0.00,VWS V14.01,2013-01-21 00:59:00,
2013-01-20 20:04:00,29.8,9.0,29.94,SW,225,2.2,5.4,41,0.00,,CLR,0.00,VWS V14.01,2013-01-21 01:04:00,
2013-01-20 20:09:00,29.7,8.9,29.94,SW,225,4.5,14.3,41,0.00,,CLR,0.00,VWS V14.01,2013-01-21 01:09:00,
2013-01-20 20:14:00,29.7,8.9,29.97,WSW,248,8.1,8.1,41,0.00,,CLR,0.00,VWS V14.01,2013-01-21 01:14:00,
2013-01-20 20:19:00,29.7,8.9,29.97,SSE,158,5.8,5.8,41,0.00,,CLR,0.00,VWS V14.01,2013-01-21 01:19:00,
2013-01-20 20:24:00,29.5,8.7,29.97,West,270,4.9,8.5,41,0.00,,CLR,0.00,VWS V14.01,2013-01-21 01:24:00,
2013-01-20 20:29:00,29.5,8.7,29.97,West,270,8.5,9.4,41,0.00,,CLR,0.00,VWS V14.01,2013-01-21 01:29:00,
2013-01-20 20:34:00,29.3,8.5,29.97,NE,45,4.5,5.8,41,0.00,,CLR,0.00,VWS V14.01,2013-01-21 01:34:00,
2013-01-20 20:39:00,28.9,8.2,29.97,West,270,4.5,4.5,41,0.00,,CLR,0.00,VWS V14.01,2013-01-21 01:39:00,
2013-01-20 20:44:00,28.9,8.2,29.97,SW,225,8.5,8.5,41,0.00,,CLR,0.00,VWS V14.01,2013-01-21 01:44:00,
2013-01-20 20:49:00,28.8,8.0,29.97,NNW,338,4.0,8.1,41,0.00,,CLR,0.00,VWS V14.01,2013-01-21 01:49:00,
2013-01-20 20:54:00,28.6,7.9,29.97,SE,135,2.7,4.9,41,0.00,,CLR,0.00,VWS V14.01,2013-01-21 01:54:00,
2013-01-20 20:59:00,28.4,7.7,29.97,NE,45,6.7,6.7,41,0.00,,CLR,0.00,VWS V14.01,2013-01-21 01:59:00,
2013-01-20 21:05:00,28.2,7.6,29.97,NW,315,8.5,8.5,41,0.00,,CLR,0.00,VWS V14.01,2013-01-21 02:05:00,
2013-01-20 21:10:00,27.9,7.2,29.97,NW,315,7.2,7.2,41,0.00,,CLR,0.00,VWS V14.01,2013-01-21 02:10:00,
2013-01-20 21:14:00,27.9,7.2,29.97,West,270,5.8,12.1,41,0.00,,CLR,0.00,VWS V14.01,2013-01-21 02:14:00,
2013-01-20 21:19:00,27.7,7.1,29.97,SSE,158,4.9,8.5,41,0.00,,CLR,0.00,VWS V14.01,2013-01-21 02:19:00,
2013-01-20 21:24:00,27.5,6.9,29.97,NW,315,5.8,6.7,41,0.00,,CLR,0.00,VWS V14.01,2013-01-21 02:24:00,
2013-01-20 21:30:00,27.3,6.7,30.00,WNW,292,7.2,7.2,41,0.00,,CLR,0.00,VWS V14.01,2013-01-21 02:30:00,
2013-01-20 21:35:00,27.1,6.6,30.00,WNW,292,4.9,4.9,41,0.00,,CLR,0.00,VWS V14.01,2013-01-21 02:35:00,
2013-01-20 21:40:00,27.0,6.4,30.00,NW,315,2.2,2.2,41,0.00,,CLR,0.00,VWS V14.01,2013-01-21 02:40:00,
2013-01-20 21:45:00,26.8,6.2,30.00,SSW,202,6.3,6.3,41,0.00,,CLR,0.00,VWS V14.01,2013-01-21 02:45:00,
2013-01-20 21:50:00,26.8,5.7,30.00,SW,225,4.0,4.9,40,0.00,,CLR,0.00,VWS V14.01,2013-01-21 02:50:00,
2013-01-20 21:55:00,26.6,5.6,30.00,WSW,248,7.2,7.2,40,0.00,,CLR,0.00,VWS V14.01,2013-01-21 02:55:00,
2013-01-20 22:00:00,26.4,5.4,30.00,SW,225,3.1,4.9,40,0.00,,CLR,0.00,VWS V14.01,2013-01-21 03:00:00,
2013-01-20 22:05:00,26.1,5.1,30.00,SSW,202,8.1,8.1,40,0.00,,CLR,0.00,VWS V14.01,2013-01-21 03:05:00,
2013-01-20 22:10:00,26.1,5.1,30.00,WSW,248,6.7,8.5,40,0.00,,CLR,0.00,VWS V14.01,2013-01-21 03:10:00,
2013-01-20 22:15:00,25.9,4.9,30.03,West,270,7.2,9.4,40,0.00,,CLR,0.00,VWS V14.01,2013-01-21 03:15:00,
2013-01-20 22:20:00,25.9,4.9,30.03,SW,225,1.8,3.1,40,0.00,,CLR,0.00,VWS V14.01,2013-01-21 03:20:00,
2013-01-20 22:25:00,25.7,4.2,30.03,SSE,158,3.1,10.7,39,0.00,,CLR,0.00,VWS V14.01,2013-01-21 03:25:00,
2013-01-20 22:30:00,25.5,4.6,30.03,NW,315,3.1,6.3,40,0.00,,CLR,0.00,VWS V14.01,2013-01-21 03:30:00,
2013-01-20 22:35:00,25.5,4.6,30.03,NW,315,4.5,5.4,40,0.00,,CLR,0.00,VWS V14.01,2013-01-21 03:35:00,
2013-01-20 22:40:00,25.3,4.4,30.03,WNW,292,3.1,4.0,40,0.00,,CLR,0.00,VWS V14.01,2013-01-21 03:40:00,
2013-01-20 22:45:00,25.3,4.4,30.03,WSW,248,5.8,6.3,40,0.00,,CLR,0.00,VWS V14.01,2013-01-21 03:45:00,
2013-01-20 22:50:00,25.3,4.4,30.03,North,0,2.2,6.7,40,0.00,,CLR,0.00,VWS V14.01,2013-01-21 03:50:00,
2013-01-20 22:56:00,25.5,4.0,30.03,West,270,20.6,20.6,39,0.00,,CLR,0.00,VWS V14.01,2013-01-21 03:56:00,
2013-01-20 23:01:00,25.7,4.7,30.03,WNW,292,6.3,6.7,40,0.00,,CLR,0.00,VWS V14.01,2013-01-21 04:01:00,
2013-01-20 23:06:00,25.7,4.2,30.03,SW,225,4.9,4.9,39,0.00,,CLR,0.00,VWS V14.01,2013-01-21 04:06:00,
2013-01-20 23:11:00,25.5,4.6,30.03,SE,135,7.6,7.6,40,0.00,,CLR,0.00,VWS V14.01,2013-01-21 04:11:00,
2013-01-20 23:16:00,25.3,4.4,30.03,East,90,5.8,6.3,40,0.00,,CLR,0.00,VWS V14.01,2013-01-21 04:16:00,
2013-01-20 23:21:00,25.3,4.4,30.03,SSW,202,8.5,8.5,40,0.00,,CLR,0.00,VWS V14.01,2013-01-21 04:21:00,
2013-01-20 23:26:00,25.3,4.4,30.03,NNW,338,7.6,8.1,40,0.00,,CLR,0.00,VWS V14.01,2013-01-21 04:26:00,
2013-01-20 23:31:00,25.3,3.9,30.03,SW,225,6.3,7.2,39,0.00,,CLR,0.00,VWS V14.01,2013-01-21 04:31:00,
2013-01-20 23:36:00,25.3,3.9,30.03,NW,315,9.0,12.1,39,0.00,,CLR,0.00,VWS V14.01,2013-01-21 04:36:00,
2013-01-20 23:42:00,25.3,3.9,30.03,NW,315,6.7,7.6,39,0.00,,FEW055,0.00,VWS V14.01,2013-01-21 04:42:00,
2013-01-20 23:47:00,25.3,3.9,30.03,WSW,248,8.1,8.1,39,0.00,,FEW055,0.00,VWS V14.01,2013-01-21 04:47:00,
2013-01-20 23:52:00,25.3,3.9,30.03,WSW,248,4.9,9.8,39,0.00,,FEW055,0.00,VWS V14.01,2013-01-21 04:52:00,
2013-01-20 23:57:00,25.3,3.9,30.03,West,270,7.6,7.6,39,0.00,,FEW055,0.00,VWS V14.01,2013-01-21 04:57:00,